Terminal Aerodrome Forecast
Issued by NWS

Current Version | Previous Version | Text Only | Print | Product List | Glossary On
Versions: 1 2 3 4 5 6 7 8 9 10 11 12 13 14
000
FTUS45 KABQ 081729
TAFSAF
TAF
KSAF 081729Z 0818/0918 15012KT P6SM BKN060
     FM082300 18006KT P6SM SCT100
     FM090300 10005KT P6SM SCT120
     FM090900 35007KT P6SM BKN070=

USA.gov is the U.S. government's official web portal to all federal, state and local government web resources and services.